Hyde Park, Illinois
Current Conditions -  °F | °C
As of 8:53 AM on Thursday 30 Oct 2014 (Local Time) from KMDW Reporting Station
Broken Clouds Broken Clouds  
Wind Chill: 38°   Ceiling: 25000
Heat Index: 41°   Visibility: 10mi
Dew Point: 35°   Wind: 5mph
Humidity: 79%   Direction: 200°SSW
Pressure: 30.15"   Gusts: NA
Location:  41.8194°N, 87.6099°W
Report Text: KMDW 301353Z 20004KT 10SM FEW170 BKN250 05/02 A3015 RMK AO2 SLP214 T00500017
Loading
Personal Weather Stations






























Interactive Weather Map
Tropical Storm Tracking
New forecast layout! Learn more

10-Day Weather Forecast

Advertisements
Track Severe Weather on mobile